createdAt,value
2022-12-12T00:01:21.666Z,40.38
2022-12-12T00:04:11.023Z,32.75
2022-12-12T00:07:01.965Z,28.55
2022-12-12T00:09:51.307Z,29.67
2022-12-12T00:12:41.031Z,33.00
2022-12-12T00:15:30.508Z,26.77
2022-12-12T00:18:19.995Z,31.20
2022-12-12T00:21:15.589Z,26.55
2022-12-12T00:24:07.671Z,27.00
2022-12-12T00:26:56.966Z,34.63
2022-12-12T00:29:46.261Z,28.67
2022-12-12T00:32:35.791Z,29.70
2022-12-12T00:35:25.270Z,34.97
2022-12-12T00:38:14.540Z,41.90
2022-12-12T00:41:07.561Z,47.72
2022-12-12T00:43:57.172Z,38.30
2022-12-12T00:46:46.744Z,31.35
2022-12-12T00:49:36.251Z,27.63
2022-12-12T00:52:25.524Z,27.67
2022-12-12T00:55:15.093Z,26.42
2022-12-12T00:58:05.990Z,27.92
2022-12-12T01:00:55.741Z,29.30
2022-12-12T01:03:45.584Z,26.52
2022-12-12T01:06:35.094Z,29.27
2022-12-12T01:09:24.376Z,26.30
2022-12-12T01:12:13.653Z,40.42
2022-12-12T01:15:05.558Z,26.67
2022-12-12T01:17:55.316Z,27.40
2022-12-12T01:20:45.419Z,28.05
2022-12-12T01:23:35.186Z,33.33
2022-12-12T01:26:26.121Z,27.08
2022-12-12T01:29:15.386Z,29.70
2022-12-12T01:32:06.847Z,27.23
2022-12-12T01:34:56.128Z,28.77
2022-12-12T01:37:45.575Z,28.55
2022-12-12T01:40:34.941Z,28.38
2022-12-12T01:43:26.783Z,28.17
2022-12-12T01:46:42.328Z,26.48
2022-12-12T01:49:34.582Z,35.90
2022-12-12T01:52:29.521Z,31.80
2022-12-12T01:55:24.351Z,26.67
2022-12-12T01:58:14.237Z,38.65
2022-12-12T02:01:03.741Z,34.03
2022-12-12T02:03:53.675Z,23.08
2022-12-12T02:06:45.422Z,24.20
2022-12-12T02:09:37.266Z,40.58
2022-12-12T02:12:26.509Z,28.50
2022-12-12T02:15:16.255Z,28.98
2022-12-12T02:18:12.888Z,29.67
2022-12-12T02:21:15.585Z,30.90
2022-12-12T02:24:54.742Z,23.17
2022-12-12T02:28:32.151Z,31.20
2022-12-12T02:31:28.264Z,28.30
2022-12-12T02:34:26.750Z,24.60
2022-12-12T02:37:26.032Z,22.67
2022-12-12T02:40:23.911Z,28.27
2022-12-12T02:43:20.249Z,25.90
2022-12-12T02:46:19.070Z,31.27
2022-12-12T02:49:16.195Z,24.38
2022-12-12T02:52:06.543Z,25.15
2022-12-12T02:54:55.949Z,24.85
2022-12-12T02:57:45.546Z,34.67
2022-12-12T03:00:43.444Z,27.95
2022-12-12T03:03:59.967Z,23.80
2022-12-12T03:07:26.536Z,21.55
2022-12-12T03:10:30.968Z,45.78
2022-12-12T03:13:33.467Z,21.10
2022-12-12T03:16:29.832Z,27.88
2022-12-12T03:19:27.248Z,22.05
2022-12-12T03:22:27.180Z,20.73
2022-12-12T03:25:22.853Z,22.30
2022-12-12T03:28:17.852Z,22.58
2022-12-12T03:31:12.285Z,28.15
2022-12-12T03:34:07.175Z,28.65
2022-12-12T03:37:02.487Z,21.27
2022-12-12T03:40:00.433Z,22.48
2022-12-12T03:42:55.363Z,21.35
2022-12-12T03:45:56.903Z,21.17
2022-12-12T03:48:50.217Z,25.52
2022-12-12T03:51:45.018Z,21.67
2022-12-12T03:54:39.130Z,27.77
2022-12-12T03:57:36.031Z,21.23
2022-12-12T04:00:25.731Z,20.63
2022-12-12T04:03:24.598Z,22.02
2022-12-12T04:06:28.775Z,21.90
2022-12-12T04:09:38.813Z,19.83
2022-12-12T04:12:56.612Z,22.52
2022-12-12T04:15:58.563Z,23.17
2022-12-12T04:18:55.425Z,20.75
2022-12-12T04:22:08.540Z,21.92
2022-12-12T04:25:05.444Z,26.10
2022-12-12T04:28:02.913Z,20.40
2022-12-12T04:30:52.676Z,28.92
2022-12-12T04:33:49.732Z,20.88
2022-12-12T04:36:40.289Z,21.85
2022-12-12T04:39:30.715Z,21.25
2022-12-12T04:42:26.346Z,20.05
2022-12-12T04:45:22.168Z,29.35
2022-12-12T04:48:19.121Z,22.85
2022-12-12T04:51:11.740Z,21.45
2022-12-12T04:54:08.145Z,22.35
2022-12-12T04:57:03.323Z,25.27
2022-12-12T04:59:53.331Z,23.73
2022-12-12T05:02:51.133Z,23.02
2022-12-12T05:05:45.964Z,23.85
2022-12-12T05:08:39.548Z,24.92
2022-12-12T05:11:29.473Z,23.00
2022-12-12T05:14:19.523Z,32.25
2022-12-12T05:17:15.664Z,23.70
2022-12-12T05:20:07.586Z,23.38
2022-12-12T05:22:57.229Z,23.92
2022-12-12T05:25:46.814Z,35.95
2022-12-12T05:28:36.264Z,22.95
2022-12-12T05:31:26.793Z,26.98
2022-12-12T05:34:16.124Z,22.98
2022-12-12T05:37:06.907Z,23.15
2022-12-12T05:39:56.193Z,25.52
2022-12-12T05:42:45.747Z,26.65
2022-12-12T05:45:34.994Z,21.92
2022-12-12T05:48:24.809Z,22.85
2022-12-12T05:51:14.067Z,22.75
2022-12-12T05:54:04.789Z,20.25
2022-12-12T05:56:54.127Z,24.02
2022-12-12T05:59:43.421Z,24.30
2022-12-12T06:02:32.829Z,22.23
2022-12-12T06:05:22.697Z,24.73
2022-12-12T06:08:12.102Z,21.05
2022-12-12T06:11:05.449Z,20.75
2022-12-12T06:13:54.765Z,24.38
2022-12-12T06:16:44.167Z,22.02
2022-12-12T06:19:34.583Z,19.25
2022-12-12T06:22:23.971Z,21.17
2022-12-12T06:25:14.475Z,21.88
2022-12-12T06:28:05.878Z,23.20
2022-12-12T06:30:56.261Z,25.48
2022-12-12T06:33:46.402Z,24.40
2022-12-12T06:36:35.694Z,18.92
2022-12-12T06:39:24.973Z,17.40
2022-12-12T06:42:14.297Z,17.50
2022-12-12T06:45:06.671Z,18.08
2022-12-12T06:47:56.211Z,18.00
2022-12-12T06:50:46.743Z,18.45
2022-12-12T06:53:36.183Z,19.92
2022-12-12T06:56:27.982Z,20.02
2022-12-12T06:59:18.168Z,22.40
2022-12-12T07:02:10.473Z,23.33
2022-12-12T07:05:00.037Z,23.35
2022-12-12T07:07:49.495Z,20.75
2022-12-12T07:10:38.882Z,25.63
2022-12-12T07:13:28.219Z,25.77
2022-12-12T07:16:18.628Z,27.98
2022-12-12T07:19:10.866Z,22.55
2022-12-12T07:22:05.792Z,27.43
2022-12-12T07:24:58.611Z,25.48
2022-12-12T07:27:47.969Z,24.38
2022-12-12T07:30:40.753Z,22.42
2022-12-12T07:33:41.067Z,22.60
2022-12-12T07:36:33.736Z,21.85
2022-12-12T07:39:23.048Z,24.23
2022-12-12T07:42:12.396Z,29.95
2022-12-12T07:45:01.671Z,19.77
2022-12-12T07:47:52.345Z,18.65
2022-12-12T07:50:42.852Z,20.60
2022-12-12T07:53:34.046Z,26.52
2022-12-12T07:56:23.660Z,23.70
2022-12-12T07:59:13.041Z,21.23
2022-12-12T08:02:02.397Z,19.75
2022-12-12T08:04:51.803Z,19.13
2022-12-12T08:07:41.437Z,22.10
2022-12-12T08:10:32.377Z,24.05
2022-12-12T08:13:21.892Z,20.17
2022-12-12T08:16:16.217Z,20.40
2022-12-12T08:19:05.883Z,23.33
2022-12-12T08:21:55.201Z,24.75
2022-12-12T08:24:44.755Z,19.90
2022-12-12T08:27:35.693Z,22.15
2022-12-12T08:30:24.960Z,26.17
2022-12-12T08:33:14.225Z,25.88
2022-12-12T08:36:14.732Z,27.50
2022-12-12T08:39:08.200Z,26.25
2022-12-12T08:41:57.519Z,29.73
2022-12-12T08:44:50.062Z,24.63
2022-12-12T08:47:39.500Z,28.65
2022-12-12T08:50:28.819Z,25.60
2022-12-12T08:53:18.367Z,30.38
2022-12-12T08:56:08.943Z,37.83
2022-12-12T08:58:58.281Z,31.98
2022-12-12T09:01:49.311Z,33.95
2022-12-12T09:04:40.456Z,36.20
2022-12-12T09:07:29.819Z,35.55
2022-12-12T09:10:19.513Z,28.83
2022-12-12T09:13:09.160Z,31.35
2022-12-12T09:15:58.680Z,34.15
2022-12-12T09:18:49.711Z,34.03
2022-12-12T09:21:39.119Z,37.20
2022-12-12T09:24:28.752Z,33.65
2022-12-12T09:27:18.153Z,34.60
2022-12-12T09:30:08.917Z,31.42
2022-12-12T09:32:58.291Z,33.25
2022-12-12T09:35:57.571Z,27.15
2022-12-12T09:38:47.044Z,31.73
2022-12-12T09:41:36.299Z,32.95
2022-12-12T09:44:27.402Z,45.67
2022-12-12T09:47:33.314Z,45.60
2022-12-12T09:50:29.644Z,57.28
2022-12-12T09:53:23.024Z,51.42
2022-12-12T09:56:19.971Z,47.67
2022-12-12T09:59:17.077Z,46.65
2022-12-12T10:02:31.396Z,53.67
2022-12-12T10:05:35.730Z,54.58
2022-12-12T10:08:39.040Z,58.65
2022-12-12T10:14:44.150Z,51.20
2022-12-12T10:17:39.274Z,62.05
2022-12-12T10:20:32.157Z,59.60
2022-12-12T10:23:33.749Z,55.45
2022-12-12T10:26:26.716Z,53.25
2022-12-12T10:29:21.644Z,52.00
2022-12-12T10:32:23.184Z,55.67
2022-12-12T10:35:26.757Z,62.05
2022-12-12T10:38:33.317Z,67.82
2022-12-12T10:41:37.599Z,62.58
2022-12-12T10:44:53.147Z,65.93
2022-12-12T10:47:42.631Z,55.85
2022-12-12T10:50:37.387Z,41.45
2022-12-12T10:53:27.136Z,45.80
2022-12-12T10:56:25.312Z,50.58
2022-12-12T10:59:24.103Z,62.30
2022-12-12T11:02:38.187Z,56.28
2022-12-12T11:05:35.846Z,53.85
2022-12-12T11:08:30.640Z,63.65
2022-12-12T11:11:24.181Z,52.80
2022-12-12T11:14:29.169Z,58.17
2022-12-12T11:17:25.901Z,62.13
2022-12-12T11:20:20.336Z,70.75
2022-12-12T11:23:20.110Z,71.72
2022-12-12T11:26:17.042Z,82.18
2022-12-12T11:29:08.163Z,82.82
2022-12-12T11:31:58.285Z,79.35
2022-12-12T11:34:52.705Z,78.97
2022-12-12T11:37:53.707Z,75.72
2022-12-12T11:40:44.729Z,45.63
2022-12-12T11:43:38.243Z,41.88
2022-12-12T11:46:31.678Z,43.10
2022-12-12T11:49:21.777Z,44.42
2022-12-12T11:52:21.593Z,39.67
2022-12-12T11:55:17.299Z,44.80
2022-12-12T11:58:18.871Z,46.33
2022-12-12T12:01:17.922Z,41.92
2022-12-12T12:04:40.292Z,39.22
2022-12-12T12:07:56.617Z,40.47
2022-12-12T12:11:03.211Z,47.60
2022-12-12T12:14:21.348Z,38.78
2022-12-12T12:17:24.136Z,41.67
2022-12-12T12:20:25.912Z,50.80
2022-12-12T12:23:27.801Z,44.35
2022-12-12T12:26:25.299Z,38.28
2022-12-12T12:29:57.183Z,41.72
2022-12-12T12:33:18.169Z,47.97
2022-12-12T12:36:21.477Z,51.13
2022-12-12T12:39:29.973Z,63.80
2022-12-12T12:42:34.542Z,103.28
2022-12-12T12:45:38.204Z,123.80
2022-12-12T12:48:35.117Z,118.43
2022-12-12T12:51:32.868Z,49.40
2022-12-12T12:54:26.455Z,50.22
2022-12-12T12:57:22.855Z,41.72
2022-12-12T13:00:19.836Z,65.93
2022-12-12T13:03:18.902Z,66.60
2022-12-12T13:06:19.797Z,56.42
2022-12-12T13:09:31.455Z,54.80
2022-12-12T13:12:30.293Z,55.10
2022-12-12T13:15:27.011Z,67.43
2022-12-12T13:18:18.695Z,50.25
2022-12-12T13:21:17.672Z,64.55
2022-12-12T13:24:18.480Z,57.38
2022-12-12T13:27:18.463Z,78.70
2022-12-12T13:30:21.490Z,57.13
2022-12-12T13:33:33.138Z,66.22
2022-12-12T13:36:30.029Z,86.25
2022-12-12T13:39:31.845Z,69.40
2022-12-12T13:42:21.130Z,66.13
2022-12-12T13:45:38.917Z,74.90
2022-12-12T13:48:48.840Z,84.55
2022-12-12T13:51:40.873Z,105.55
2022-12-12T13:55:16.128Z,111.80
2022-12-12T13:58:19.830Z,147.50
2022-12-12T14:01:34.556Z,147.70
2022-12-12T14:04:30.333Z,158.35
2022-12-12T14:07:25.613Z,156.65
2022-12-12T14:10:28.402Z,156.35
2022-12-12T14:13:43.196Z,100.40
2022-12-12T14:16:32.585Z,59.90
2022-12-12T14:19:36.171Z,58.75
2022-12-12T14:22:30.070Z,62.92
2022-12-12T14:25:30.769Z,62.58
2022-12-12T14:28:26.689Z,63.28
2022-12-12T14:31:18.129Z,82.45
2022-12-12T14:34:28.600Z,72.90
2022-12-12T14:37:49.869Z,91.40
2022-12-12T14:40:48.539Z,114.50
2022-12-12T14:43:43.888Z,122.75
2022-12-12T14:46:33.269Z,131.48
2022-12-12T14:49:23.096Z,135.68
2022-12-12T14:52:22.502Z,134.95
2022-12-12T14:55:17.207Z,138.60
2022-12-12T14:58:07.916Z,120.63
2022-12-12T15:01:00.963Z,106.70
2022-12-12T15:03:52.439Z,86.43
2022-12-12T15:06:43.327Z,68.28
2022-12-12T15:09:35.317Z,75.15
2022-12-12T15:12:28.243Z,72.85
2022-12-12T15:15:27.758Z,74.53
2022-12-12T15:18:21.577Z,74.72
2022-12-12T15:21:11.033Z,87.50
2022-12-12T15:24:01.173Z,99.43
2022-12-12T15:26:55.337Z,97.25
2022-12-12T15:29:44.754Z,101.72
2022-12-12T15:32:35.701Z,110.28
2022-12-12T15:35:25.573Z,109.00
2022-12-12T15:38:15.477Z,115.55
2022-12-12T15:41:13.361Z,106.03
2022-12-12T15:44:05.340Z,117.85
2022-12-12T15:46:54.981Z,133.50
2022-12-12T15:49:47.505Z,118.85
2022-12-12T15:52:36.959Z,102.05
2022-12-12T15:55:26.489Z,105.45
2022-12-12T15:58:29.142Z,117.40
2022-12-12T16:01:22.486Z,141.52
2022-12-12T16:04:26.281Z,112.35
2022-12-12T16:07:24.160Z,100.18
2022-12-12T16:10:24.225Z,122.90
2022-12-12T16:13:26.567Z,120.70
2022-12-12T16:16:43.669Z,101.32
2022-12-12T16:19:47.147Z,104.97
2022-12-12T16:22:41.730Z,95.88
2022-12-12T16:25:32.615Z,92.40
2022-12-12T16:28:25.903Z,102.60
2022-12-12T16:31:19.190Z,108.55
2022-12-12T16:36:57.657Z,94.07
2022-12-12T16:39:48.444Z,184.75
2022-12-12T16:42:38.525Z,212.63
2022-12-12T16:45:29.354Z,218.20
2022-12-12T16:48:21.572Z,216.70
2022-12-12T16:51:18.113Z,224.50
2022-12-12T16:54:07.599Z,226.93
2022-12-12T16:56:58.580Z,222.82
2022-12-12T16:59:47.920Z,225.93
2022-12-12T17:02:37.315Z,237.45
2022-12-12T17:05:28.916Z,247.50
2022-12-12T17:08:18.758Z,225.55
2022-12-12T17:11:09.424Z,240.00
2022-12-12T17:14:01.409Z,214.18
2022-12-12T17:16:51.173Z,130.57
2022-12-12T17:19:40.716Z,133.38
2022-12-12T17:22:30.562Z,172.23
2022-12-12T17:25:21.540Z,141.73
2022-12-12T17:28:14.794Z,142.88
2022-12-12T17:31:10.361Z,184.18
2022-12-12T17:33:59.881Z,168.43
2022-12-12T17:36:49.193Z,171.45
2022-12-12T17:39:38.771Z,200.75
2022-12-12T17:42:31.180Z,177.35
2022-12-12T17:45:20.660Z,202.57
2022-12-12T17:48:11.270Z,214.88
2022-12-12T17:51:02.805Z,232.50
2022-12-12T17:53:53.580Z,219.55
2022-12-12T17:56:42.804Z,230.00
2022-12-12T17:59:32.176Z,234.20
2022-12-12T18:02:21.536Z,171.43
2022-12-12T18:05:12.295Z,170.20
2022-12-12T18:08:01.696Z,183.88
2022-12-12T18:10:51.342Z,191.68
2022-12-12T18:13:42.636Z,194.70
2022-12-12T18:16:34.487Z,194.77
2022-12-12T18:19:27.358Z,258.85
2022-12-12T18:22:18.082Z,287.58
2022-12-12T18:25:08.819Z,237.00
2022-12-12T18:27:58.930Z,203.68
2022-12-12T18:30:50.572Z,211.73
2022-12-12T18:33:40.255Z,209.27
2022-12-12T18:36:32.328Z,224.70
2022-12-12T18:39:24.860Z,213.90
2022-12-12T18:42:14.461Z,197.32
2022-12-12T18:45:04.142Z,227.00
2022-12-12T18:47:55.177Z,224.18
2022-12-12T18:50:44.546Z,192.32
2022-12-12T18:53:34.428Z,199.27
2022-12-12T18:56:29.820Z,187.18
2022-12-12T18:59:19.391Z,139.40
2022-12-12T19:02:14.752Z,136.18
2022-12-12T19:05:04.668Z,122.43
2022-12-12T19:07:54.158Z,119.35
2022-12-12T19:10:46.521Z,118.32
2022-12-12T19:13:38.264Z,121.03
2022-12-12T19:16:27.680Z,115.65
2022-12-12T19:19:17.220Z,116.43
2022-12-12T19:22:24.722Z,120.70
2022-12-12T19:25:17.317Z,95.78
2022-12-12T19:28:06.751Z,107.82
2022-12-12T19:30:59.075Z,105.97
2022-12-12T19:33:49.264Z,90.70
2022-12-12T19:36:41.589Z,96.10
2022-12-12T19:39:31.048Z,94.68
2022-12-12T19:42:20.628Z,100.03
2022-12-12T19:45:11.653Z,105.13
2022-12-12T19:48:02.730Z,111.47
2022-12-12T19:50:52.187Z,106.30
2022-12-12T19:53:43.819Z,89.57
2022-12-12T19:56:36.281Z,100.15
2022-12-12T19:59:25.676Z,98.20
2022-12-12T20:02:15.649Z,98.93
2022-12-12T20:05:07.200Z,75.10
2022-12-12T20:07:57.799Z,95.95
2022-12-12T20:10:47.362Z,97.30
2022-12-12T20:13:37.363Z,88.38
2022-12-12T20:16:29.463Z,89.53
2022-12-12T20:19:19.913Z,110.53
2022-12-12T20:22:10.583Z,100.72
2022-12-12T20:25:00.141Z,98.63
2022-12-12T20:27:49.465Z,104.85
2022-12-12T20:30:38.813Z,96.80
2022-12-12T20:33:28.519Z,94.97
2022-12-12T20:36:21.681Z,92.90
2022-12-12T20:42:06.665Z,73.47
2022-12-12T20:44:56.088Z,81.03
2022-12-12T20:47:45.413Z,84.28
2022-12-12T20:50:34.819Z,81.60
2022-12-12T20:53:24.157Z,87.35
2022-12-12T20:56:18.023Z,92.68
2022-12-12T20:59:07.788Z,98.35
2022-12-12T21:01:57.647Z,97.80
2022-12-12T21:04:47.202Z,109.72
2022-12-12T21:07:36.621Z,105.22
2022-12-12T21:10:26.093Z,124.32
2022-12-12T21:13:16.926Z,117.95
2022-12-12T21:16:10.907Z,129.18
2022-12-12T21:19:04.900Z,121.88
2022-12-12T21:21:54.584Z,124.65
2022-12-12T21:24:44.594Z,144.70
2022-12-12T21:27:34.525Z,134.80
2022-12-12T21:30:25.369Z,135.07
2022-12-12T21:33:14.759Z,109.15
2022-12-12T21:36:06.406Z,111.88
2022-12-12T21:38:57.716Z,109.85
2022-12-12T21:41:47.186Z,109.10
2022-12-12T21:44:38.972Z,100.90
2022-12-12T21:47:33.315Z,95.68
2022-12-12T21:50:27.484Z,107.63
2022-12-12T21:53:35.064Z,104.20
2022-12-12T21:56:24.370Z,92.03
2022-12-12T21:59:14.925Z,106.47
2022-12-12T22:02:06.689Z,127.60
2022-12-12T22:04:57.714Z,148.57
2022-12-12T22:07:47.061Z,144.00
2022-12-12T22:10:38.934Z,151.20
2022-12-12T22:13:28.393Z,144.32
2022-12-12T22:16:20.941Z,176.80
2022-12-12T22:19:13.212Z,164.13
2022-12-12T22:22:04.074Z,134.33
2022-12-12T22:24:54.223Z,131.88
2022-12-12T22:27:43.509Z,118.45
2022-12-12T22:30:33.168Z,135.32
2022-12-12T22:33:22.544Z,123.72
2022-12-12T22:36:12.891Z,122.28
2022-12-12T22:39:04.969Z,133.35
2022-12-12T22:41:55.094Z,129.93
2022-12-12T22:44:44.836Z,137.70
2022-12-12T22:47:34.403Z,122.60
2022-12-12T22:50:23.743Z,117.43
2022-12-12T22:53:13.501Z,119.75
2022-12-12T22:56:05.229Z,120.80
2022-12-12T22:58:54.690Z,124.72
2022-12-12T23:01:44.727Z,110.85
2022-12-12T23:04:34.196Z,117.13
2022-12-12T23:07:23.594Z,116.60
2022-12-12T23:10:13.522Z,108.65
2022-12-12T23:13:04.432Z,110.47
2022-12-12T23:15:53.731Z,110.63
2022-12-12T23:18:43.392Z,116.10
2022-12-12T23:21:34.441Z,108.93
2022-12-12T23:24:23.866Z,123.75
2022-12-12T23:27:13.166Z,129.13
2022-12-12T23:30:04.308Z,121.75
2022-12-12T23:32:53.738Z,124.97
2022-12-12T23:35:49.057Z,118.88
2022-12-12T23:38:38.784Z,104.88
2022-12-12T23:41:29.132Z,115.47
2022-12-12T23:44:20.787Z,108.97
2022-12-12T23:47:11.440Z,100.30
2022-12-12T23:50:01.673Z,92.90
2022-12-12T23:52:50.959Z,103.13
2022-12-12T23:55:40.498Z,105.38
2022-12-12T23:58:29.936Z,101.75
